Time;durP1;ratioP1;P1;durP2;ratioP2;P2;SDS_P1;SDS_P2;PMS_P1;PMS_P2;Temp;Humidity;BMP_temperature;BMP_pressure;BME280_temperature;BME280_humidity;BME280_pressure;Samples;Min_cycle;Max_cycle;Signal;HPM_P1;HPM_P2
2021/06/27 00:00:00;;;;;;;11.80;10.33;;;16.40;99.90;;;;;;5112097;28;20435;-80
2021/06/27 00:02:26;;;;;;;15.10;12.03;;;16.30;99.90;;;;;;5113429;28;20411;-81
2021/06/27 00:04:51;;;;;;;12.07;10.90;;;16.20;99.90;;;;;;5113532;28;20168;-80
2021/06/27 00:07:17;;;;;;;11.73;10.53;;;16.10;99.90;;;;;;5113439;28;20523;-81
2021/06/27 00:09:43;;;;;;;13.73;12.23;;;16.00;99.90;;;;;;5113035;28;20233;-80
2021/06/27 00:12:10;;;;;;;12.03;10.87;;;15.90;99.90;;;;;;5113111;28;20220;-80
2021/06/27 00:14:36;;;;;;;12.93;10.70;;;15.70;99.90;;;;;;5113417;28;20956;-81
2021/06/27 00:17:02;;;;;;;12.37;11.20;;;15.70;99.90;;;;;;5112790;28;20453;-80
2021/06/27 00:19:28;;;;;;;13.87;12.13;;;15.60;99.90;;;;;;5117431;28;20410;-80
2021/06/27 00:21:53;;;;;;;12.90;11.33;;;15.50;99.90;;;;;;5116116;28;20433;-80
2021/06/27 00:24:19;;;;;;;15.00;11.17;;;15.40;99.90;;;;;;5116968;28;20176;-80
2021/06/27 00:26:45;;;;;;;13.67;12.27;;;15.40;99.90;;;;;;5117138;28;20200;-80
2021/06/27 00:29:11;;;;;;;13.90;12.33;;;15.40;99.90;;;;;;5117238;28;20221;-80
2021/06/27 00:31:37;;;;;;;14.20;12.50;;;15.40;99.90;;;;;;5117195;28;20421;-80
2021/06/27 00:34:02;;;;;;;15.00;12.50;;;15.40;99.90;;;;;;5117083;28;20208;-80
2021/06/27 00:36:28;;;;;;;13.73;12.23;;;15.30;99.90;;;;;;5117177;28;20612;-81
2021/06/27 00:38:54;;;;;;;14.37;12.90;;;15.20;99.90;;;;;;5115488;28;20199;-80
2021/06/27 00:41:19;;;;;;;13.50;12.10;;;15.20;99.90;;;;;;5116906;28;20225;-80
2021/06/27 00:43:45;;;;;;;13.50;12.10;;;15.20;99.90;;;;;;5116871;28;20173;-80
2021/06/27 00:46:10;;;;;;;15.43;13.83;;;15.20;99.90;;;;;;5116848;28;20177;-80
2021/06/27 00:48:36;;;;;;;15.63;14.03;;;15.20;99.90;;;;;;5115777;28;20253;-80
2021/06/27 00:51:03;;;;;;;16.30;13.93;;;15.20;99.90;;;;;;5116842;28;20161;-80
2021/06/27 00:53:28;;;;;;;14.60;13.10;;;15.10;99.90;;;;;;5116756;28;20215;-80
2021/06/27 00:55:54;;;;;;;15.63;14.03;;;15.10;99.90;;;;;;5116266;28;20498;-80
2021/06/27 00:58:38;;;;;;;15.93;14.30;;;15.00;99.90;;;;;;5115447;28;20175;-80
2021/06/27 01:01:07;;;;;;;16.20;12.97;;;14.90;99.90;;;;;;5116585;28;20418;-80
2021/06/27 01:03:32;;;;;;;19.33;13.90;;;14.90;99.90;;;;;;5116587;28;20413;-80
2021/06/27 01:05:58;;;;;;;15.20;13.60;;;14.90;99.90;;;;;;5116580;28;20413;-80
2021/06/27 01:08:24;;;;;;;13.27;11.30;;;14.90;99.90;;;;;;5116458;28;20246;-80
2021/06/27 01:10:50;;;;;;;15.37;13.47;;;14.80;99.90;;;;;;5116186;28;20173;-80
2021/06/27 01:13:17;;;;;;;14.33;12.00;;;14.80;99.90;;;;;;5116287;28;20245;-79
2021/06/27 01:15:44;;;;;;;17.03;13.13;;;14.80;99.90;;;;;;5116231;28;20473;-82
2021/06/27 01:18:09;;;;;;;15.30;13.50;;;14.70;99.90;;;;;;5116332;28;20410;-82
2021/06/27 01:20:38;;;;;;;15.30;12.57;;;14.80;99.90;;;;;;5116029;28;20929;-82
2021/06/27 01:23:08;;;;;;;15.23;13.60;;;14.80;99.90;;;;;;5114805;28;20427;-82
2021/06/27 01:25:36;;;;;;;15.77;13.23;;;14.70;99.90;;;;;;5114615;28;20417;-82
2021/06/27 01:28:03;;;;;;;16.43;13.90;;;14.70;99.90;;;;;;5114248;28;20468;-82
2021/06/27 01:30:30;;;;;;;15.00;13.43;;;14.70;99.90;;;;;;5113985;28;20425;-82
2021/06/27 01:33:03;;;;;;;15.43;12.37;;;14.60;99.90;;;;;;5114613;28;20500;-82
2021/06/27 01:35:29;;;;;;;17.43;13.80;;;14.60;99.90;;;;;;5114764;28;20501;-82
2021/06/27 01:37:57;;;;;;;15.70;14.10;;;14.60;99.90;;;;;;5114361;28;20442;-82
2021/06/27 01:40:25;;;;;;;15.63;13.27;;;14.60;99.90;;;;;;5114307;28;20261;-82
2021/06/27 01:42:52;;;;;;;15.23;13.40;;;14.60;99.90;;;;;;5114600;28;20417;-82
2021/06/27 01:45:24;;;;;;;15.90;14.13;;;14.50;99.90;;;;;;5114323;28;20429;-82
2021/06/27 01:48:10;;;;;;;14.17;12.60;;;14.50;99.90;;;;;;5115712;28;20432;-82
2021/06/27 01:50:38;;;;;;;14.20;12.33;;;14.50;99.90;;;;;;5115772;28;20394;-81
2021/06/27 01:53:08;;;;;;;15.20;12.93;;;14.50;99.90;;;;;;5114319;28;20410;-80
2021/06/27 01:55:34;;;;;;;13.93;12.20;;;14.40;99.90;;;;;;5115098;28;20976;-80
2021/06/27 01:58:00;;;;;;;17.33;14.33;;;14.40;99.90;;;;;;5114344;28;20413;-80
2021/06/27 02:00:29;;;;;;;15.47;13.30;;;14.40;99.90;;;;;;5115503;28;20230;-80
2021/06/27 02:02:56;;;;;;;16.93;14.40;;;14.40;99.90;;;;;;5115564;28;20633;-80
2021/06/27 02:05:22;;;;;;;15.97;14.37;;;14.40;99.90;;;;;;5115383;28;20420;-80
2021/06/27 02:07:48;;;;;;;14.40;12.90;;;14.40;99.90;;;;;;5115366;28;20435;-80
2021/06/27 02:10:20;;;;;;;15.43;13.83;;;14.40;99.90;;;;;;5115018;28;20417;-80
2021/06/27 02:12:47;;;;;;;15.63;14.10;;;14.50;99.90;;;;;;5115140;28;20332;-80
2021/06/27 02:15:13;;;;;;;18.57;13.20;;;14.50;99.90;;;;;;5113923;28;20476;-80
2021/06/27 02:18:15;;;;;;;15.57;12.77;;;14.40;99.90;;;;;;5115135;28;20400;-80
2021/06/27 02:20:41;;;;;;;13.67;12.23;;;14.30;99.90;;;;;;5104020;28;20421;-80
2021/06/27 02:23:06;;;;;;;14.70;13.07;;;14.30;99.90;;;;;;5115027;28;20409;-80
2021/06/27 02:25:32;;;;;;;18.03;12.00;;;14.30;99.90;;;;;;5114662;28;20223;-80
2021/06/27 02:27:57;;;;;;;14.20;12.70;;;14.30;99.90;;;;;;5114943;28;20164;-80
2021/06/27 02:30:23;;;;;;;14.23;12.33;;;14.30;99.90;;;;;;5114948;28;20173;-80
2021/06/27 02:32:50;;;;;;;14.80;12.33;;;14.30;99.90;;;;;;5114843;28;20673;-80
2021/06/27 02:35:15;;;;;;;14.30;11.80;;;14.30;99.90;;;;;;5114728;28;20230;-80
2021/06/27 02:37:42;;;;;;;14.37;12.50;;;14.20;99.90;;;;;;5113508;28;20912;-80
2021/06/27 02:40:10;;;;;;;14.10;12.33;;;14.10;99.90;;;;;;5113939;28;20222;-81
2021/06/27 02:42:35;;;;;;;17.13;15.00;;;14.10;99.90;;;;;;5113599;28;20420;-82
2021/06/27 02:45:03;;;;;;;14.20;12.70;;;14.20;99.90;;;;;;5116103;28;20410;-79
2021/06/27 02:47:28;;;;;;;16.20;14.37;;;14.20;99.90;;;;;;5113347;28;20279;-79
2021/06/27 02:49:54;;;;;;;17.50;15.10;;;14.20;99.90;;;;;;5113277;28;20459;-79
2021/06/27 02:52:20;;;;;;;15.20;13.67;;;14.20;99.90;;;;;;5114473;28;20634;-79
2021/06/27 02:54:45;;;;;;;14.50;13.00;;;14.20;99.90;;;;;;5114019;28;20567;-79
2021/06/27 02:57:11;;;;;;;15.33;13.10;;;14.20;99.90;;;;;;5114361;28;20202;-79
2021/06/27 02:59:36;;;;;;;15.50;13.90;;;14.40;99.90;;;;;;5114291;28;20269;-79
2021/06/27 03:02:02;;;;;;;17.10;13.50;;;14.40;99.90;;;;;;5114288;28;20185;-79
2021/06/27 03:04:28;;;;;;;16.37;14.57;;;14.40;99.90;;;;;;5114106;28;20174;-79
2021/06/27 03:06:53;;;;;;;15.30;12.97;;;14.40;99.90;;;;;;5114215;28;20168;-79
2021/06/27 03:09:19;;;;;;;17.47;14.70;;;14.40;99.90;;;;;;5113813;28;20175;-79
2021/06/27 03:11:44;;;;;;;18.20;13.50;;;14.50;99.90;;;;;;5113868;28;20203;-79
2021/06/27 03:14:10;;;;;;;20.73;14.90;;;14.60;99.90;;;;;;5112990;28;20687;-79
2021/06/27 03:16:35;;;;;;;15.67;13.07;;;14.70;99.90;;;;;;5113999;28;20753;-78
2021/06/27 03:19:01;;;;;;;15.33;13.77;;;14.80;99.90;;;;;;5114084;28;20189;-79
2021/06/27 03:21:26;;;;;;;15.97;13.93;;;14.90;99.90;;;;;;5114045;28;20175;-79
2021/06/27 03:23:52;;;;;;;16.73;14.93;;;15.10;99.90;;;;;;5112413;28;20543;-79
2021/06/27 03:26:18;;;;;;;15.63;14.03;;;15.20;99.90;;;;;;5113877;28;20167;-79
2021/06/27 03:28:46;;;;;;;15.60;13.97;;;15.20;99.90;;;;;;5113877;28;20216;-79
2021/06/27 03:31:12;;;;;;;18.40;14.33;;;15.30;99.90;;;;;;5113913;28;20284;-79
2021/06/27 03:33:37;;;;;;;16.00;14.33;;;15.40;99.90;;;;;;5113793;28;20409;-79
2021/06/27 03:36:03;;;;;;;17.47;15.57;;;15.40;99.90;;;;;;5112378;28;20214;-79
2021/06/27 03:41:01;;;;;;;16.30;13.60;;;15.40;99.90;;;;;;5113743;28;20909;-79
2021/06/27 03:43:26;;;;;;;18.03;14.13;;;15.50;99.90;;;;;;5113740;28;20418;-79
2021/06/27 03:45:52;;;;;;;15.93;14.27;;;15.40;99.90;;;;;;5113765;28;20164;-79
2021/06/27 03:48:17;;;;;;;15.30;13.80;;;15.50;99.90;;;;;;5113577;28;20173;-79
2021/06/27 03:50:43;;;;;;;14.97;13.37;;;15.50;99.90;;;;;;5113583;28;20502;-79
2021/06/27 03:53:09;;;;;;;16.23;14.53;;;15.60;99.90;;;;;;5112380;28;20535;-79
2021/06/27 03:55:34;;;;;;;14.80;12.70;;;15.60;99.90;;;;;;5113464;28;20669;-78
2021/06/27 03:58:00;;;;;;;14.60;13.17;;;15.70;99.90;;;;;;5112203;28;20186;-79
2021/06/27 04:00:26;;;;;;;16.73;14.93;;;15.70;99.90;;;;;;5112170;28;20258;-79
2021/06/27 04:02:53;;;;;;;16.60;14.40;;;15.80;99.90;;;;;;5112107;28;20415;-79
2021/06/27 04:05:19;;;;;;;19.13;16.67;;;16.00;99.90;;;;;;5112446;28;20186;-79
2021/06/27 04:07:44;;;;;;;17.40;15.50;;;16.00;99.90;;;;;;5112148;28;20760;-79
2021/06/27 04:10:10;;;;;;;18.80;15.80;;;16.20;99.90;;;;;;5111485;28;20227;-79
2021/06/27 04:12:36;;;;;;;18.00;15.80;;;16.30;99.90;;;;;;5113141;28;20211;-79
2021/06/27 04:15:04;;;;;;;18.13;15.97;;;16.30;99.90;;;;;;5113298;28;20552;-79
2021/06/27 04:17:29;;;;;;;20.47;18.33;;;16.30;99.90;;;;;;5113253;28;20595;-79
2021/06/27 04:19:56;;;;;;;20.03;16.30;;;16.20;99.90;;;;;;5113303;28;20446;-79
2021/06/27 04:22:22;;;;;;;17.73;15.03;;;16.30;99.90;;;;;;5113290;28;20173;-79
2021/06/27 04:24:47;;;;;;;19.27;17.00;;;16.20;99.90;;;;;;5112802;28;20496;-79
2021/06/27 04:27:13;;;;;;;17.97;16.17;;;16.20;99.90;;;;;;5113173;28;20259;-79
2021/06/27 04:29:39;;;;;;;19.67;15.40;;;16.30;99.90;;;;;;5113170;28;20570;-79
2021/06/27 04:32:05;;;;;;;18.10;14.60;;;16.40;99.90;;;;;;5113267;28;20195;-79
2021/06/27 04:34:32;;;;;;;16.70;14.90;;;16.40;99.90;;;;;;5113141;28;20596;-79
2021/06/27 04:36:57;;;;;;;18.47;16.60;;;16.50;99.90;;;;;;5113160;28;20467;-79
2021/06/27 04:39:23;;;;;;;15.53;13.90;;;16.50;99.90;;;;;;5112797;28;20821;-79
2021/06/27 04:41:48;;;;;;;20.10;15.37;;;16.50;99.90;;;;;;5113143;28;20192;-79
2021/06/27 04:44:14;;;;;;;17.40;15.10;;;16.60;99.90;;;;;;5113023;28;20176;-79
2021/06/27 04:46:40;;;;;;;15.20;13.40;;;16.60;99.90;;;;;;5113008;28;20563;-79
2021/06/27 04:49:07;;;;;;;16.60;14.60;;;16.70;99.90;;;;;;5113076;28;20197;-79
2021/06/27 04:51:34;;;;;;;17.70;15.80;;;16.70;99.90;;;;;;5113055;28;20434;-79
2021/06/27 04:53:59;;;;;;;16.30;14.60;;;16.70;99.90;;;;;;5112575;28;20408;-79
2021/06/27 04:56:25;;;;;;;18.63;15.03;;;16.70;99.90;;;;;;5112958;28;20423;-79
2021/06/27 04:58:51;;;;;;;16.10;13.63;;;16.70;99.90;;;;;;5112894;28;20219;-79
2021/06/27 05:01:16;;;;;;;15.53;13.93;;;16.70;99.90;;;;;;5112911;28;20175;-79
2021/06/27 05:03:42;;;;;;;17.63;15.70;;;16.80;99.90;;;;;;5114477;28;20633;-79
2021/06/27 05:06:07;;;;;;;16.13;14.17;;;16.90;99.90;;;;;;5116506;28;20173;-79
2021/06/27 05:08:33;;;;;;;17.07;13.37;;;17.00;99.90;;;;;;5116163;28;20704;-79
2021/06/27 05:10:59;;;;;;;18.40;13.93;;;17.00;99.90;;;;;;5116520;28;20555;-79
2021/06/27 05:13:25;;;;;;;17.20;15.60;;;17.10;99.90;;;;;;5116258;28;20786;-79
2021/06/27 05:15:51;;;;;;;16.10;14.17;;;17.20;99.90;;;;;;5116275;28;20217;-79
2021/06/27 05:18:16;;;;;;;17.60;14.60;;;17.20;99.90;;;;;;5116412;28;20419;-79
2021/06/27 05:20:42;;;;;;;15.57;13.53;;;17.30;99.90;;;;;;5116274;28;20173;-79
2021/06/27 05:23:08;;;;;;;16.50;14.80;;;17.40;99.90;;;;;;5115867;28;20198;-79
2021/06/27 05:25:33;;;;;;;16.30;14.63;;;17.50;99.90;;;;;;5116216;28;20174;-79
2021/06/27 05:28:00;;;;;;;16.97;15.17;;;17.60;99.90;;;;;;5116052;28;20192;-79
2021/06/27 05:30:25;;;;;;;17.27;15.47;;;17.60;99.90;;;;;;5116023;28;20177;-79
2021/06/27 05:32:51;;;;;;;17.20;15.50;;;17.70;99.90;;;;;;5115962;28;20917;-79
2021/06/27 05:35:17;;;;;;;17.47;13.67;;;17.70;99.90;;;;;;5115898;28;20264;-79
2021/06/27 05:37:42;;;;;;;16.53;14.23;;;17.70;99.90;;;;;;5115954;28;20170;-79
2021/06/27 05:40:09;;;;;;;16.30;14.30;;;17.80;99.90;;;;;;5115533;28;20202;-79
2021/06/27 05:42:34;;;;;;;18.63;15.13;;;17.80;99.90;;;;;;5115844;28;20635;-79
2021/06/27 05:45:00;;;;;;;14.27;12.87;;;17.90;99.90;;;;;;5114533;28;20481;-79
2021/06/27 05:47:25;;;;;;;15.77;14.17;;;18.00;99.90;;;;;;5115757;28;20171;-79
2021/06/27 05:49:51;;;;;;;15.37;13.77;;;18.00;99.90;;;;;;5115764;28;20173;-79
2021/06/27 05:52:17;;;;;;;13.67;12.37;;;18.10;99.90;;;;;;5114506;28;20168;-79
2021/06/27 05:54:42;;;;;;;14.10;12.73;;;18.20;99.90;;;;;;5115262;28;20689;-79
2021/06/27 05:57:08;;;;;;;16.23;14.40;;;18.20;99.90;;;;;;5115697;28;20586;-79
2021/06/27 05:59:33;;;;;;;17.60;13.57;;;18.30;99.90;;;;;;5115517;28;20173;-79
2021/06/27 06:01:59;;;;;;;14.80;13.40;;;18.40;99.90;;;;;;5115510;28;20264;-79
2021/06/27 06:04:25;;;;;;;15.70;13.97;;;18.50;99.90;;;;;;5115414;28;20172;-79
2021/06/27 06:06:50;;;;;;;16.47;13.60;;;18.60;99.90;;;;;;5115364;28;20181;-79
2021/06/27 06:09:16;;;;;;;15.37;13.80;;;18.60;99.90;;;;;;5114218;28;20626;-79
2021/06/27 06:11:41;;;;;;;15.20;13.60;;;18.70;99.90;;;;;;5114506;28;20180;-81
2021/06/27 06:14:07;;;;;;;15.60;13.33;;;18.70;99.90;;;;;;5115067;28;20173;-81
2021/06/27 06:16:32;;;;;;;13.77;12.47;;;18.80;99.90;;;;;;5107857;28;20220;-80
2021/06/27 06:18:59;;;;;;;15.63;14.13;;;18.90;99.90;;;;;;5108404;28;20656;-83
2021/06/27 06:21:24;;;;;;;15.93;13.40;;;19.00;99.90;;;;;;5102047;27;20168;-80
2021/06/27 06:23:50;;;;;;;14.53;13.00;;;19.10;99.90;;;;;;5114606;28;20516;-79
2021/06/27 06:26:16;;;;;;;14.50;12.97;;;19.20;99.90;;;;;;5114993;28;20598;-79
2021/06/27 06:28:41;;;;;;;14.30;12.67;;;19.50;99.90;;;;;;5113416;28;20171;-81
2021/06/27 06:31:08;;;;;;;11.97;10.83;;;20.00;99.90;;;;;;5113677;28;20169;-81
2021/06/27 06:33:35;;;;;;;13.50;12.03;;;20.40;99.90;;;;;;5113701;28;20166;-81
2021/06/27 06:36:00;;;;;;;13.17;11.60;;;20.60;99.90;;;;;;5114695;28;20470;-80
2021/06/27 06:38:26;;;;;;;15.20;13.50;;;20.60;86.70;;;;;;5114001;28;20429;-88
2021/06/27 06:40:51;;;;;;;12.70;11.50;;;20.70;99.80;;;;;;5114678;28;20573;-84
2021/06/27 06:43:17;;;;;;;13.83;12.53;;;21.00;99.20;;;;;;5114624;28;20624;-84
2021/06/27 06:45:43;;;;;;;14.90;11.93;;;21.30;51.40;;;;;;5114220;28;20185;-80
2021/06/27 06:48:09;;;;;;;11.70;10.60;;;21.60;19.30;;;;;;5113638;27;20181;-81
2021/06/27 06:50:34;;;;;;;10.43;9.30;;;22.00;1.00;;;;;;5114299;28;20770;-82
2021/06/27 06:53:00;;;;;;;11.00;10.00;;;22.20;1.00;;;;;;5113434;28;20199;-81
2021/06/27 06:55:28;;;;;;;11.60;10.57;;;22.40;1.00;;;;;;5114016;28;20466;-80
2021/06/27 06:57:54;;;;;;;11.03;9.53;;;22.50;1.00;;;;;;5114353;28;20162;-82
2021/06/27 07:00:21;;;;;;;11.20;9.17;;;22.80;1.00;;;;;;5114038;28;20498;-81
2021/06/27 07:02:46;;;;;;;9.67;8.73;;;23.70;99.90;;;;;;5113022;28;20411;-80
2021/06/27 07:05:12;;;;;;;9.43;8.63;;;25.00;1.00;;;;;;5112943;28;20431;-80
2021/06/27 07:07:40;;;;;;;9.77;8.63;;;25.60;1.00;;;;;;5113706;28;20249;-90
2021/06/27 07:10:06;;;;;;;8.90;8.10;;;26.40;1.00;;;;;;5114163;28;20185;-81
2021/06/27 07:12:32;;;;;;;8.13;7.07;;;26.50;99.90;;;;;;5113731;28;20445;-80
2021/06/27 07:14:58;;;;;;;9.37;8.57;;;26.60;1.00;;;;;;5113877;28;20511;-81
2021/06/27 07:17:24;;;;;;;8.07;7.30;;;26.60;99.90;;;;;;5112129;28;20217;-81
2021/06/27 07:19:49;;;;;;;7.90;7.20;;;27.00;1.00;;;;;;5112510;28;20938;-80
2021/06/27 07:22:15;;;;;;;6.87;6.37;;;27.30;99.90;;;;;;5113945;28;20759;-80
2021/06/27 07:24:41;;;;;;;7.13;6.50;;;27.60;1.00;;;;;;5113611;28;20174;-80
2021/06/27 07:27:07;;;;;;;7.33;6.33;;;27.60;1.00;;;;;;5113733;28;20171;-80
2021/06/27 07:29:33;;;;;;;6.67;6.17;;;28.00;1.00;;;;;;5112532;28;20174;-81
2021/06/27 07:31:59;;;;;;;9.13;8.33;;;28.10;1.00;;;;;;5112316;28;20855;-80
2021/06/27 07:34:25;;;;;;;9.30;8.50;;;28.00;1.00;;;;;;5112991;27;20210;-81
2021/06/27 07:36:51;;;;;;;7.23;6.60;;;28.30;1.00;;;;;;5113655;28;20211;-90
2021/06/27 07:39:17;;;;;;;7.50;6.90;;;28.50;1.00;;;;;;5110307;28;20452;-81
2021/06/27 07:41:43;;;;;;;5.93;5.43;;;28.60;1.00;;;;;;5113603;28;20425;-81
2021/06/27 07:44:08;;;;;;;6.83;6.23;;;28.70;1.00;;;;;;5112346;28;20416;-81
2021/06/27 07:46:34;;;;;;;7.40;6.70;;;29.00;99.90;;;;;;5112045;28;20175;-80
2021/06/27 07:48:59;;;;;;;6.70;6.20;;;29.00;99.90;;;;;;5112313;28;20598;-80
2021/06/27 07:51:25;;;;;;;7.13;6.53;;;28.60;99.90;;;;;;5113574;28;20167;-80
2021/06/27 07:53:51;;;;;;;7.47;6.77;;;28.40;99.90;;;;;;5113145;28;20228;-81
2021/06/27 07:56:17;;;;;;;7.33;5.90;;;27.80;99.90;;;;;;5113457;28;20270;-81
2021/06/27 07:58:42;;;;;;;5.87;5.40;;;28.40;99.90;;;;;;5113378;28;20197;-81
2021/06/27 08:01:08;;;;;;;7.87;7.27;;;28.90;99.90;;;;;;5113396;28;20413;-80
2021/06/27 08:03:33;;;;;;;7.60;7.00;;;29.00;99.90;;;;;;5113467;28;20198;-81
2021/06/27 08:05:59;;;;;;;7.53;6.83;;;29.10;99.90;;;;;;5113412;28;20429;-80
2021/06/27 08:08:25;;;;;;;8.87;8.17;;;29.30;99.90;;;;;;5112250;28;20171;-82
2021/06/27 08:10:50;;;;;;;8.93;8.20;;;29.10;99.90;;;;;;5112652;28;20554;-81
2021/06/27 08:13:16;;;;;;;8.33;7.53;;;29.30;99.90;;;;;;5112883;28;20304;-81
2021/06/27 08:15:42;;;;;;;7.47;6.67;;;;;;;;;;5111065;28;20622;-81
2021/06/27 08:18:08;;;;;;;9.13;8.40;;;29.80;99.90;;;;;;5113267;28;20163;-81
2021/06/27 08:20:33;;;;;;;9.90;8.90;;;29.70;99.90;;;;;;5112911;28;20440;-80
2021/06/27 08:22:59;;;;;;;9.10;8.40;;;29.50;99.90;;;;;;5111320;28;20270;-81
2021/06/27 08:25:25;;;;;;;6.63;6.03;;;29.20;99.90;;;;;;5111940;28;20273;-80
2021/06/27 08:27:52;;;;;;;7.53;6.93;;;29.70;99.90;;;;;;5110810;28;20217;-80
2021/06/27 08:30:19;;;;;;;7.83;7.10;;;29.60;99.90;;;;;;5112942;28;20291;-81
2021/06/27 08:32:46;;;;;;;6.83;6.27;;;29.50;99.90;;;;;;5113097;28;20405;-81
2021/06/27 08:35:14;;;;;;;8.90;8.10;;;29.90;99.90;;;;;;5111792;28;20819;-89
2021/06/27 08:37:40;;;;;;;10.00;9.30;;;29.70;99.90;;;;;;5112748;28;20506;-81
2021/06/27 08:40:07;;;;;;;9.03;8.33;;;29.60;99.90;;;;;;5114996;27;20432;-80
2021/06/27 08:42:33;;;;;;;10.20;9.20;;;30.10;99.90;;;;;;5117021;28;20410;-80
2021/06/27 08:44:59;;;;;;;7.87;7.10;;;29.80;99.90;;;;;;5116740;28;20428;-81
2021/06/27 08:47:25;;;;;;;8.07;7.37;;;29.70;99.90;;;;;;5115732;28;20203;-81
2021/06/27 08:49:52;;;;;;;8.90;8.10;;;30.30;99.90;;;;;;5116950;28;20171;-80
2021/06/27 08:52:19;;;;;;;10.00;9.10;;;30.40;99.90;;;;;;5115195;28;20767;-80
2021/06/27 08:54:46;;;;;;;9.90;9.10;;;30.00;99.90;;;;;;5116490;28;20879;-80
2021/06/27 08:57:13;;;;;;;10.00;9.20;;;29.90;99.90;;;;;;5116691;28;20410;-81
2021/06/27 08:59:40;;;;;;;9.03;8.30;;;30.30;99.90;;;;;;5116684;28;21072;-80
2021/06/27 09:02:06;;;;;;;9.10;8.30;;;30.20;99.90;;;;;;5116669;28;20428;-80
2021/06/27 09:04:34;;;;;;;10.10;9.20;;;29.90;99.90;;;;;;5116719;28;20741;-81
2021/06/27 09:07:25;;;;;;;9.77;9.03;;;29.70;99.90;;;;;;5116538;27;20416;-80
2021/06/27 09:09:51;;;;;;;9.20;8.40;;;30.20;99.90;;;;;;5116492;28;20482;-81
2021/06/27 09:12:17;;;;;;;8.20;7.40;;;30.60;99.90;;;;;;5116199;28;20977;-81
2021/06/27 09:14:44;;;;;;;8.50;7.80;;;31.10;99.90;;;;;;5116367;28;20203;-81
2021/06/27 09:17:29;;;;;;;9.77;9.07;;;31.30;99.90;;;;;;5116385;28;20643;-81
2021/06/27 09:20:03;;;;;;;8.80;8.00;;;31.60;99.90;;;;;;5114661;28;20445;-80
2021/06/27 09:22:40;;;;;;;9.37;8.40;;;30.80;99.90;;;;;;5115981;28;20413;-80
2021/06/27 09:25:14;;;;;;;8.10;7.40;;;29.90;99.90;;;;;;5116294;28;20492;-81
2021/06/27 09:27:39;;;;;;;10.30;9.40;;;30.80;99.90;;;;;;5114957;28;20764;-80
2021/06/27 09:30:20;;;;;;;8.60;7.90;;;29.10;99.90;;;;;;5116092;28;20416;-80
2021/06/27 09:32:51;;;;;;;8.33;7.63;;;29.90;99.90;;;;;;5114793;28;20168;-80
2021/06/27 09:35:40;;;;;;;8.73;7.93;;;29.80;99.90;;;;;;5114983;27;20476;-81
2021/06/27 09:38:35;;;;;;;9.33;8.53;;;30.60;99.90;;;;;;5115452;28;20406;-80
2021/06/27 09:41:11;;;;;;;11.23;10.30;;;28.50;99.90;;;;;;5114338;28;20938;-81
2021/06/27 09:43:37;;;;;;;10.80;9.97;;;27.10;99.90;;;;;;5114448;28;20421;-81
2021/06/27 09:46:12;;;;;;;9.47;8.47;;;28.70;99.90;;;;;;5114162;28;20437;-82
2021/06/27 09:48:52;;;;;;;9.27;8.40;;;30.40;99.90;;;;;;5115514;28;20187;-81
2021/06/27 09:51:18;;;;;;;10.10;9.30;;;30.50;99.90;;;;;;5114379;28;20421;-81
2021/06/27 09:53:47;;;;;;;9.70;8.70;;;30.20;99.90;;;;;;5113821;28;20417;-80
2021/06/27 09:56:15;;;;;;;8.30;7.60;;;28.60;99.90;;;;;;5115093;28;20465;-81
2021/06/27 09:58:59;;;;;;;8.77;7.63;;;28.70;99.90;;;;;;5115469;28;20500;-81
2021/06/27 10:01:26;;;;;;;10.50;9.50;;;28.50;99.90;;;;;;5115235;28;20421;-82
2021/06/27 10:03:54;;;;;;;9.37;8.53;;;29.90;99.90;;;;;;5115101;28;20496;-80
2021/06/27 10:06:25;;;;;;;9.77;8.93;;;28.50;99.90;;;;;;5113306;27;20453;-81
2021/06/27 10:08:51;;;;;;;10.27;9.40;;;29.20;99.90;;;;;;5114757;28;20421;-81
2021/06/27 10:11:19;;;;;;;9.57;8.77;;;30.60;99.90;;;;;;5114931;27;20500;-82
2021/06/27 10:13:53;;;;;;;8.63;7.83;;;31.10;99.90;;;;;;5114871;28;20462;-81
2021/06/27 10:16:31;;;;;;;8.23;7.60;;;30.00;99.90;;;;;;5113586;28;20503;-80
2021/06/27 10:18:58;;;;;;;7.40;6.90;;;29.80;99.90;;;;;;5114745;28;20424;-81
2021/06/27 10:21:26;;;;;;;8.00;7.40;;;31.00;99.90;;;;;;5114910;28;20775;-81
2021/06/27 10:23:52;;;;;;;7.60;6.93;;;31.30;99.90;;;;;;5114497;28;20760;-81
2021/06/27 10:26:19;;;;;;;7.70;7.10;;;30.40;99.90;;;;;;5114702;28;20414;-81
2021/06/27 10:28:47;;;;;;;9.10;8.23;;;30.00;99.90;;;;;;5114661;28;20412;-83
2021/06/27 10:31:15;;;;;;;8.27;7.67;;;30.90;99.90;;;;;;5114234;28;20446;-81
2021/06/27 10:33:42;;;;;;;8.40;7.53;;;30.60;99.90;;;;;;5113363;28;20409;-81
2021/06/27 10:36:09;;;;;;;7.10;6.60;;;30.40;99.90;;;;;;5114243;28;20509;-82
2021/06/27 10:38:39;;;;;;;8.70;8.00;;;29.70;99.90;;;;;;5112329;28;20417;-81
2021/06/27 10:41:04;;;;;;;6.20;5.70;;;29.90;99.90;;;;;;5114578;28;20445;-81
2021/06/27 10:44:00;;;;;;;7.37;6.67;;;30.80;99.90;;;;;;5113279;28;20445;-81
2021/06/27 10:46:58;;;;;;;8.80;7.97;;;29.90;99.90;;;;;;5101267;28;20193;-81
2021/06/27 10:49:30;;;;;;;6.37;5.97;;;28.50;99.90;;;;;;5102247;28;20410;-81
2021/06/27 10:52:03;;;;;;;7.20;6.50;;;28.10;1.00;;;;;;5113982;28;20466;-84
2021/06/27 10:54:32;;;;;;;7.63;6.80;;;28.70;1.00;;;;;;5114060;28;20469;-81
2021/06/27 10:57:08;;;;;;;9.00;8.30;;;28.40;1.00;;;;;;5114165;28;20398;-80
2021/06/27 10:59:39;;;;;;;9.00;6.93;;;27.50;1.00;;;;;;5114032;28;20405;-80
2021/06/27 11:02:18;;;;;;;8.93;8.13;;;27.20;1.00;;;;;;5113726;28;20455;-80
2021/06/27 11:04:45;;;;;;;7.60;7.00;;;27.10;53.60;;;;;;5114089;28;20421;-80
2021/06/27 11:07:33;;;;;;;7.37;6.77;;;28.30;99.90;;;;;;5112211;28;20414;-82
2021/06/27 11:10:21;;;;;;;7.93;7.33;;;30.10;99.90;;;;;;5112939;28;20785;-81
2021/06/27 11:12:56;;;;;;;6.67;6.17;;;30.90;99.90;;;;;;5102842;28;20965;-80
2021/06/27 11:15:32;;;;;;;6.53;6.00;;;31.00;99.90;;;;;;5113499;28;20544;-81
2021/06/27 11:18:03;;;;;;;6.47;5.97;;;30.00;99.90;;;;;;5112419;28;20413;-81
2021/06/27 11:20:35;;;;;;;8.13;7.43;;;29.20;99.90;;;;;;5112581;28;20425;-81
2021/06/27 11:23:01;;;;;;;7.07;6.37;;;28.40;99.90;;;;;;5113509;28;20484;-84
2021/06/27 11:25:40;;;;;;;9.00;8.20;;;28.00;1.00;;;;;;5113629;28;20947;-80
2021/06/27 11:28:21;;;;;;;7.77;7.07;;;27.30;7.10;;;;;;5112480;28;20182;-81
2021/06/27 11:31:23;;;;;;;6.40;5.80;;;27.30;1.00;;;;;;5113413;28;20404;-80
2021/06/27 11:34:23;;;;;;;6.63;5.90;;;27.50;99.90;;;;;;5113532;27;20413;-80
2021/06/27 11:36:54;;;;;;;6.43;5.83;;;27.30;1.00;;;;;;5116130;27;20771;-80
2021/06/27 11:39:51;;;;;;;7.23;6.63;;;27.00;62.60;;;;;;5110443;28;20988;-81
2021/06/27 11:42:26;;;;;;;6.30;5.70;;;26.90;1.00;;;;;;5112130;28;20944;-80
2021/06/27 11:45:04;;;;;;;7.77;7.17;;;26.70;99.90;;;;;;5112333;28;20424;-80
2021/06/27 11:47:40;;;;;;;7.10;6.50;;;26.80;99.90;;;;;;5112459;28;20446;-80
2021/06/27 11:50:22;;;;;;;7.13;6.47;;;26.90;1.00;;;;;;5112304;28;20413;-79
2021/06/27 11:53:00;;;;;;;5.23;4.83;;;27.80;99.90;;;;;;5112049;28;20974;-79
2021/06/27 11:55:28;;;;;;;5.43;4.93;;;28.60;1.00;;;;;;5112352;28;20472;-80
2021/06/27 11:57:53;;;;;;;5.10;4.70;;;28.10;99.90;;;;;;5113577;28;20826;-80
2021/06/27 12:00:20;;;;;;;4.70;4.20;;;29.60;99.90;;;;;;5113583;28;20449;-80
2021/06/27 12:02:46;;;;;;;5.47;4.20;;;30.40;99.90;;;;;;5113536;28;20523;-80
2021/06/27 12:05:14;;;;;;;4.63;4.33;;;30.10;99.90;;;;;;5113374;28;20418;-80
2021/06/27 12:07:44;;;;;;;4.97;4.57;;;28.90;1.00;;;;;;5113157;28;20190;-80
2021/06/27 12:10:18;;;;;;;4.17;3.77;;;27.80;99.90;;;;;;5113492;28;20409;-80
2021/06/27 12:12:48;;;;;;;4.70;4.40;;;27.30;21.50;;;;;;5113437;28;20965;-80
2021/06/27 12:15:16;;;;;;;5.13;4.63;;;27.10;1.00;;;;;;5117531;28;20460;-80
2021/06/27 12:17:47;;;;;;;4.20;3.80;;;27.70;99.90;;;;;;5117531;28;20402;-80
2021/06/27 12:20:15;;;;;;;6.30;4.40;;;28.80;1.00;;;;;;5117560;28;20420;-80
2021/06/27 12:23:11;;;;;;;4.20;3.90;;;30.10;1.00;;;;;;5116997;28;20413;-80
2021/06/27 12:25:41;;;;;;;3.73;3.17;;;30.70;99.90;;;;;;5115573;28;20432;-81
2021/06/27 12:28:12;;;;;;;3.70;3.40;;;30.90;99.90;;;;;;5117450;28;20412;-80
2021/06/27 12:30:48;;;;;;;3.70;3.40;;;31.00;99.90;;;;;;5117397;28;20444;-80
2021/06/27 12:33:24;;;;;;;4.10;3.60;;;30.90;99.90;;;;;;5117234;28;20492;-81
2021/06/27 12:36:02;;;;;;;4.40;4.10;;;30.90;99.90;;;;;;5117193;28;20471;-80
2021/06/27 12:38:29;;;;;;;5.30;4.90;;;29.40;99.90;;;;;;5122977;28;20401;-80
2021/06/27 12:40:58;;;;;;;6.33;4.40;;;29.70;99.90;;;;;;5117785;28;20405;-81
2021/06/27 12:43:31;;;;;;;4.10;3.80;;;30.70;99.90;;;;;;5117342;28;20405;-80